Portada
METAR-TAF:

METAR-TAF

Aeroports :

Gíger, Algèria

latitud: 36-53N, longitud: 005-49E, altitud: 2 m

Observació

L'informe es va fer fa 51 minuts, a les 22:00 UTC
Vent 1 kt del Oest
Temperatura 25°C
Humitat 89%
Pressió 1014 hPa
Visibilitat: 8000 m

METAR: DAAV 182200Z 28001KT 8000 NSC 25/23 Q1014

Hora: 23:51 (22:51 UTC)

Pronòstic

L'informe es va fer fa 5 hores i 51 minuts, a les 17:00 UTC
Pronòstic vàlid del 18 a les 18 UTC al 19 a les 18 UTC
Vent 8 kt del Oest/Nord-Oest
Visibilitat 10 km o més
sense núvols per sota de 1500 mi sense presència de cumulonimbus.
Probabilitat 40% :
Temporalment
l' 18 a les 18 UTC al 18 a les 21 UTC
Vent 12 kt del Nord/Nord-Est
Escasses núvols a una alçada de 2000 ft, Cumulonimbus.

TAF: DAAV 181700Z 1818/1918 30008KT CAVOK PROB40 TEMPO 1818/1821 03012KT FEW020CB

Observacions i pronòstics meteorològics de més de 4000 aeroports (METAR i TAF).

Les estacions disponibles són els punts grocs i vermells al mapa.

Posi el ratolí al punt desitjat per veure el nom de l'estació.

Feu clic per veure les observacions i els pronòstics meteorològics.

Per canviar el mapa: feu clic els botons verds amb una creu de color negre per apropar; al botó verd amb un guió per allunyar la imatge; o en les fletxes verdes per a mapes adjacents.


METAR-TAF: